sensor_id;sensor_type;location;lat;lon;timestamp;temperature;humidity
74940;HTU21D;63505;45.226;37.908;2023-06-24T00:01:41;16.10;74.79
74940;HTU21D;63505;45.226;37.908;2023-06-24T00:04:07;16.08;74.78
74940;HTU21D;63505;45.226;37.908;2023-06-24T00:06:33;16.04;74.80
74940;HTU21D;63505;45.226;37.908;2023-06-24T00:08:59;16.00;74.83
74940;HTU21D;63505;45.226;37.908;2023-06-24T00:11:29;15.93;74.92
74940;HTU21D;63505;45.226;37.908;2023-06-24T00:13:55;15.89;74.99
74940;HTU21D;63505;45.226;37.908;2023-06-24T00:16:21;15.84;75.11
74940;HTU21D;63505;45.226;37.908;2023-06-24T00:18:55;15.83;75.12
74940;HTU21D;63505;45.226;37.908;2023-06-24T00:21:26;15.81;75.12
74940;HTU21D;63505;45.226;37.908;2023-06-24T00:24:03;15.83;75.12
74940;HTU21D;63505;45.226;37.908;2023-06-24T00:26:32;15.82;75.09
74940;HTU21D;63505;45.226;37.908;2023-06-24T00:28:58;15.84;75.05
74940;HTU21D;63505;45.226;37.908;2023-06-24T00:31:24;15.85;75.05
74940;HTU21D;63505;45.226;37.908;2023-06-24T00:33:50;15.86;75.09
74940;HTU21D;63505;45.226;37.908;2023-06-24T00:36:17;15.87;75.12
74940;HTU21D;63505;45.226;37.908;2023-06-24T00:38:43;15.85;75.22
74940;HTU21D;63505;45.226;37.908;2023-06-24T00:41:09;15.87;75.25
74940;HTU21D;63505;45.226;37.908;2023-06-24T00:43:37;15.87;75.25
74940;HTU21D;63505;45.226;37.908;2023-06-24T00:46:04;15.86;75.29
74940;HTU21D;63505;45.226;37.908;2023-06-24T00:48:32;15.87;75.35
74940;HTU21D;63505;45.226;37.908;2023-06-24T00:50:58;15.81;75.33
74940;HTU21D;63505;45.226;37.908;2023-06-24T00:53:26;15.61;75.63
74940;HTU21D;63505;45.226;37.908;2023-06-24T00:55:54;15.54;75.89
74940;HTU21D;63505;45.226;37.908;2023-06-24T00:58:21;15.52;75.97
74940;HTU21D;63505;45.226;37.908;2023-06-24T01:00:49;15.53;75.94
74940;HTU21D;63505;45.226;37.908;2023-06-24T01:03:26;15.54;75.95
74940;HTU21D;63505;45.226;37.908;2023-06-24T01:05:56;15.55;75.89
74940;HTU21D;63505;45.226;37.908;2023-06-24T01:08:22;15.54;75.87
74940;HTU21D;63505;45.226;37.908;2023-06-24T01:10:51;15.49;75.92
74940;HTU21D;63505;45.226;37.908;2023-06-24T01:13:17;15.49;75.92
74940;HTU21D;63505;45.226;37.908;2023-06-24T01:15:44;15.49;75.93
74940;HTU21D;63505;45.226;37.908;2023-06-24T01:18:21;15.49;75.92
74940;HTU21D;63505;45.226;37.908;2023-06-24T01:21:29;15.44;75.95
74940;HTU21D;63505;45.226;37.908;2023-06-24T01:23:56;15.42;75.89
74940;HTU21D;63505;45.226;37.908;2023-06-24T01:26:57;15.43;75.90
74940;HTU21D;63505;45.226;37.908;2023-06-24T01:29:48;15.45;75.83
74940;HTU21D;63505;45.226;37.908;2023-06-24T01:32:32;15.51;75.80
74940;HTU21D;63505;45.226;37.908;2023-06-24T01:35:23;15.53;75.85
74940;HTU21D;63505;45.226;37.908;2023-06-24T01:37:51;15.54;75.75
74940;HTU21D;63505;45.226;37.908;2023-06-24T01:43:04;15.53;75.86
74940;HTU21D;63505;45.226;37.908;2023-06-24T01:45:33;15.52;75.97
74940;HTU21D;63505;45.226;37.908;2023-06-24T01:48:07;15.51;76.07
74940;HTU21D;63505;45.226;37.908;2023-06-24T01:50:36;15.49;76.15
74940;HTU21D;63505;45.226;37.908;2023-06-24T01:53:06;15.49;76.21
74940;HTU21D;63505;45.226;37.908;2023-06-24T01:55:34;15.47;76.25
74940;HTU21D;63505;45.226;37.908;2023-06-24T01:58:03;15.48;76.24
74940;HTU21D;63505;45.226;37.908;2023-06-24T02:00:30;15.46;76.28
74940;HTU21D;63505;45.226;37.908;2023-06-24T02:02:57;15.48;76.39
74940;HTU21D;63505;45.226;37.908;2023-06-24T02:05:25;15.53;76.39
74940;HTU21D;63505;45.226;37.908;2023-06-24T02:07:52;15.57;76.35
74940;HTU21D;63505;45.226;37.908;2023-06-24T02:10:20;15.57;76.39
74940;HTU21D;63505;45.226;37.908;2023-06-24T02:12:49;15.59;76.37
74940;HTU21D;63505;45.226;37.908;2023-06-24T02:15:16;15.55;76.56
74940;HTU21D;63505;45.226;37.908;2023-06-24T02:17:42;15.59;76.60
74940;HTU21D;63505;45.226;37.908;2023-06-24T02:20:10;15.61;76.59
74940;HTU21D;63505;45.226;37.908;2023-06-24T02:22:39;15.66;76.65
74940;HTU21D;63505;45.226;37.908;2023-06-24T02:25:07;15.70;76.63
74940;HTU21D;63505;45.226;37.908;2023-06-24T02:27:35;15.73;76.63
74940;HTU21D;63505;45.226;37.908;2023-06-24T02:30:04;15.78;76.65
74940;HTU21D;63505;45.226;37.908;2023-06-24T02:32:30;15.83;76.67
74940;HTU21D;63505;45.226;37.908;2023-06-24T02:34:57;15.87;76.71
74940;HTU21D;63505;45.226;37.908;2023-06-24T02:37:25;15.90;76.77
74940;HTU21D;63505;45.226;37.908;2023-06-24T02:39:51;15.95;76.82
74940;HTU21D;63505;45.226;37.908;2023-06-24T02:42:17;16.01;76.86
74940;HTU21D;63505;45.226;37.908;2023-06-24T02:44:43;16.08;76.82
74940;HTU21D;63505;45.226;37.908;2023-06-24T02:47:11;16.16;76.77
74940;HTU21D;63505;45.226;37.908;2023-06-24T02:49:38;16.24;76.75
74940;HTU21D;63505;45.226;37.908;2023-06-24T02:52:05;16.31;76.70
74940;HTU21D;63505;45.226;37.908;2023-06-24T02:54:33;16.40;76.66
74940;HTU21D;63505;45.226;37.908;2023-06-24T02:57:29;16.47;76.58
74940;HTU21D;63505;45.226;37.908;2023-06-24T03:00:19;16.55;76.48
74940;HTU21D;63505;45.226;37.908;2023-06-24T03:03:05;16.62;76.45
74940;HTU21D;63505;45.226;37.908;2023-06-24T03:05:34;16.70;76.46
74940;HTU21D;63505;45.226;37.908;2023-06-24T03:08:00;16.80;76.44
74940;HTU21D;63505;45.226;37.908;2023-06-24T03:10:26;16.90;76.41
74940;HTU21D;63505;45.226;37.908;2023-06-24T03:12:53;17.01;76.36
74940;HTU21D;63505;45.226;37.908;2023-06-24T03:15:24;17.14;76.28
74940;HTU21D;63505;45.226;37.908;2023-06-24T03:17:50;17.24;76.23
74940;HTU21D;63505;45.226;37.908;2023-06-24T03:20:17;17.37;76.19
74940;HTU21D;63505;45.226;37.908;2023-06-24T03:22:43;17.47;76.18
74940;HTU21D;63505;45.226;37.908;2023-06-24T03:25:12;17.59;76.18
74940;HTU21D;63505;45.226;37.908;2023-06-24T03:27:38;17.70;76.18
74940;HTU21D;63505;45.226;37.908;2023-06-24T03:30:04;17.81;76.19
74940;HTU21D;63505;45.226;37.908;2023-06-24T03:32:33;17.94;76.19
74940;HTU21D;63505;45.226;37.908;2023-06-24T03:35:03;18.09;76.23
74940;HTU21D;63505;45.226;37.908;2023-06-24T03:37:29;18.23;76.38
74940;HTU21D;63505;45.226;37.908;2023-06-24T03:39:56;18.40;76.60
74940;HTU21D;63505;45.226;37.908;2023-06-24T03:42:22;18.54;76.70
74940;HTU21D;63505;45.226;37.908;2023-06-24T03:44:48;18.68;76.76
74940;HTU21D;63505;45.226;37.908;2023-06-24T03:47:14;18.80;76.73
74940;HTU21D;63505;45.226;37.908;2023-06-24T03:49:40;18.95;76.82
74940;HTU21D;63505;45.226;37.908;2023-06-24T03:52:06;19.10;77.11
74940;HTU21D;63505;45.226;37.908;2023-06-24T03:54:34;19.28;77.18
74940;HTU21D;63505;45.226;37.908;2023-06-24T03:57:01;19.42;76.78
74940;HTU21D;63505;45.226;37.908;2023-06-24T03:59:27;19.60;76.69
74940;HTU21D;63505;45.226;37.908;2023-06-24T04:01:54;19.80;76.73
74940;HTU21D;63505;45.226;37.908;2023-06-24T04:04:20;19.98;76.66
74940;HTU21D;63505;45.226;37.908;2023-06-24T04:06:48;20.15;76.61
74940;HTU21D;63505;45.226;37.908;2023-06-24T04:09:14;20.29;76.44
74940;HTU21D;63505;45.226;37.908;2023-06-24T04:11:40;20.47;76.34
74940;HTU21D;63505;45.226;37.908;2023-06-24T04:14:06;20.64;76.30
74940;HTU21D;63505;45.226;37.908;2023-06-24T04:16:35;20.84;76.44
74940;HTU21D;63505;45.226;37.908;2023-06-24T04:19:01;21.06;76.50
74940;HTU21D;63505;45.226;37.908;2023-06-24T04:21:28;21.22;76.34
74940;HTU21D;63505;45.226;37.908;2023-06-24T04:23:53;21.38;76.24
74940;HTU21D;63505;45.226;37.908;2023-06-24T04:26:19;21.60;76.02
74940;HTU21D;63505;45.226;37.908;2023-06-24T04:28:45;21.75;75.82
74940;HTU21D;63505;45.226;37.908;2023-06-24T04:31:11;21.93;75.70
74940;HTU21D;63505;45.226;37.908;2023-06-24T04:33:38;22.08;75.44
74940;HTU21D;63505;45.226;37.908;2023-06-24T04:36:04;22.23;75.15
74940;HTU21D;63505;45.226;37.908;2023-06-24T04:38:31;22.33;74.83
74940;HTU21D;63505;45.226;37.908;2023-06-24T04:40:58;22.42;74.50
74940;HTU21D;63505;45.226;37.908;2023-06-24T04:43:26;22.52;74.15
74940;HTU21D;63505;45.226;37.908;2023-06-24T04:45:54;22.67;73.86
74940;HTU21D;63505;45.226;37.908;2023-06-24T04:48:23;22.83;73.44
74940;HTU21D;63505;45.226;37.908;2023-06-24T04:50:49;22.94;72.99
74940;HTU21D;63505;45.226;37.908;2023-06-24T04:53:16;23.02;72.59
74940;HTU21D;63505;45.226;37.908;2023-06-24T04:55:41;23.23;72.21
74940;HTU21D;63505;45.226;37.908;2023-06-24T04:58:07;23.39;71.60
74940;HTU21D;63505;45.226;37.908;2023-06-24T05:00:33;23.49;71.22
74940;HTU21D;63505;45.226;37.908;2023-06-24T05:02:59;23.65;70.83
74940;HTU21D;63505;45.226;37.908;2023-06-24T05:05:25;23.81;70.45
74940;HTU21D;63505;45.226;37.908;2023-06-24T05:07:51;24.03;70.14
74940;HTU21D;63505;45.226;37.908;2023-06-24T05:10:17;24.30;69.62
74940;HTU21D;63505;45.226;37.908;2023-06-24T05:12:43;24.50;69.04
74940;HTU21D;63505;45.226;37.908;2023-06-24T05:15:10;24.60;68.42
74940;HTU21D;63505;45.226;37.908;2023-06-24T05:17:36;24.64;67.85
74940;HTU21D;63505;45.226;37.908;2023-06-24T05:20:31;24.73;67.02
74940;HTU21D;63505;45.226;37.908;2023-06-24T05:23:39;24.98;66.74
74940;HTU21D;63505;45.226;37.908;2023-06-24T05:26:05;25.14;66.04
74940;HTU21D;63505;45.226;37.908;2023-06-24T05:28:31;25.30;65.22
74940;HTU21D;63505;45.226;37.908;2023-06-24T05:30:57;25.42;64.68
74940;HTU21D;63505;45.226;37.908;2023-06-24T05:33:23;25.48;64.43
74940;HTU21D;63505;45.226;37.908;2023-06-24T05:35:49;25.53;64.13
74940;HTU21D;63505;45.226;37.908;2023-06-24T05:38:15;25.47;63.97
74940;HTU21D;63505;45.226;37.908;2023-06-24T05:40:41;25.53;63.62
74940;HTU21D;63505;45.226;37.908;2023-06-24T05:43:07;25.54;63.36
74940;HTU21D;63505;45.226;37.908;2023-06-24T05:45:33;25.59;63.18
74940;HTU21D;63505;45.226;37.908;2023-06-24T05:47:59;25.69;62.79
74940;HTU21D;63505;45.226;37.908;2023-06-24T05:50:25;25.73;62.41
74940;HTU21D;63505;45.226;37.908;2023-06-24T05:52:51;25.90;61.97
74940;HTU21D;63505;45.226;37.908;2023-06-24T05:55:16;26.05;61.63
74940;HTU21D;63505;45.226;37.908;2023-06-24T05:57:42;26.30;61.54
74940;HTU21D;63505;45.226;37.908;2023-06-24T06:00:09;26.61;61.40
74940;HTU21D;63505;45.226;37.908;2023-06-24T06:02:38;26.78;60.76
74940;HTU21D;63505;45.226;37.908;2023-06-24T06:05:04;26.94;60.33
74940;HTU21D;63505;45.226;37.908;2023-06-24T06:07:30;27.09;59.70
74940;HTU21D;63505;45.226;37.908;2023-06-24T06:09:56;27.25;59.27
74940;HTU21D;63505;45.226;37.908;2023-06-24T06:12:22;27.46;58.80
74940;HTU21D;63505;45.226;37.908;2023-06-24T06:14:47;27.54;58.20
74940;HTU21D;63505;45.226;37.908;2023-06-24T06:17:14;27.74;57.67
74940;HTU21D;63505;45.226;37.908;2023-06-24T06:19:40;27.73;56.07
74940;HTU21D;63505;45.226;37.908;2023-06-24T06:22:07;27.74;55.81
74940;HTU21D;63505;45.226;37.908;2023-06-24T06:24:33;27.75;54.84
74940;HTU21D;63505;45.226;37.908;2023-06-24T06:26:59;27.75;55.00
74940;HTU21D;63505;45.226;37.908;2023-06-24T06:29:25;27.97;54.99
74940;HTU21D;63505;45.226;37.908;2023-06-24T06:31:51;28.11;54.46
74940;HTU21D;63505;45.226;37.908;2023-06-24T06:34:18;28.11;54.01
74940;HTU21D;63505;45.226;37.908;2023-06-24T06:36:44;28.26;53.79
74940;HTU21D;63505;45.226;37.908;2023-06-24T06:39:10;28.47;53.36
74940;HTU21D;63505;45.226;37.908;2023-06-24T06:41:36;28.58;52.62
74940;HTU21D;63505;45.226;37.908;2023-06-24T06:44:02;28.69;52.08
74940;HTU21D;63505;45.226;37.908;2023-06-24T06:46:28;28.72;51.43
74940;HTU21D;63505;45.226;37.908;2023-06-24T06:48:54;28.74;51.02
74940;HTU21D;63505;45.226;37.908;2023-06-24T06:51:20;28.76;50.53
74940;HTU21D;63505;45.226;37.908;2023-06-24T06:53:46;28.87;50.01
74940;HTU21D;63505;45.226;37.908;2023-06-24T06:56:21;29.12;49.60
74940;HTU21D;63505;45.226;37.908;2023-06-24T06:58:48;29.19;48.27
74940;HTU21D;63505;45.226;37.908;2023-06-24T07:01:13;29.09;47.64
74940;HTU21D;63505;45.226;37.908;2023-06-24T07:03:39;29.15;47.94
74940;HTU21D;63505;45.226;37.908;2023-06-24T07:06:05;29.26;47.99
74940;HTU21D;63505;45.226;37.908;2023-06-24T07:08:31;29.35;47.73
74940;HTU21D;63505;45.226;37.908;2023-06-24T07:10:57;29.57;47.93
74940;HTU21D;63505;45.226;37.908;2023-06-24T07:13:23;29.60;46.22
74940;HTU21D;63505;45.226;37.908;2023-06-24T07:15:48;29.53;46.45
74940;HTU21D;63505;45.226;37.908;2023-06-24T07:18:14;29.49;47.15
74940;HTU21D;63505;45.226;37.908;2023-06-24T07:20:40;29.54;47.73
74940;HTU21D;63505;45.226;37.908;2023-06-24T07:23:06;29.57;48.07
74940;HTU21D;63505;45.226;37.908;2023-06-24T07:25:32;29.65;47.91
74940;HTU21D;63505;45.226;37.908;2023-06-24T07:27:58;29.79;47.60
74940;HTU21D;63505;45.226;37.908;2023-06-24T07:30:24;29.86;47.73
74940;HTU21D;63505;45.226;37.908;2023-06-24T07:32:50;29.87;47.87
74940;HTU21D;63505;45.226;37.908;2023-06-24T07:35:16;29.96;48.06
74940;HTU21D;63505;45.226;37.908;2023-06-24T07:37:42;30.02;47.03
74940;HTU21D;63505;45.226;37.908;2023-06-24T07:40:08;30.03;45.61
74940;HTU21D;63505;45.226;37.908;2023-06-24T07:42:34;30.21;44.90
74940;HTU21D;63505;45.226;37.908;2023-06-24T07:45:00;30.23;44.09
74940;HTU21D;63505;45.226;37.908;2023-06-24T07:47:26;30.23;43.88
74940;HTU21D;63505;45.226;37.908;2023-06-24T07:49:52;30.36;43.85
74940;HTU21D;63505;45.226;37.908;2023-06-24T07:52:18;30.55;43.63
74940;HTU21D;63505;45.226;37.908;2023-06-24T07:54:43;30.62;43.14
74940;HTU21D;63505;45.226;37.908;2023-06-24T07:57:09;30.68;43.06
74940;HTU21D;63505;45.226;37.908;2023-06-24T07:59:35;30.70;42.65
74940;HTU21D;63505;45.226;37.908;2023-06-24T08:02:02;30.65;41.64
74940;HTU21D;63505;45.226;37.908;2023-06-24T08:04:27;30.64;41.09
74940;HTU21D;63505;45.226;37.908;2023-06-24T08:06:53;30.71;39.73
74940;HTU21D;63505;45.226;37.908;2023-06-24T08:09:19;30.74;39.02
74940;HTU21D;63505;45.226;37.908;2023-06-24T08:11:45;30.79;38.87
74940;HTU21D;63505;45.226;37.908;2023-06-24T08:14:11;30.94;38.92
74940;HTU21D;63505;45.226;37.908;2023-06-24T08:16:37;31.07;38.86
74940;HTU21D;63505;45.226;37.908;2023-06-24T08:19:03;31.20;38.44
74940;HTU21D;63505;45.226;37.908;2023-06-24T08:21:29;31.14;37.91
74940;HTU21D;63505;45.226;37.908;2023-06-24T08:23:55;31.23;38.17
74940;HTU21D;63505;45.226;37.908;2023-06-24T08:26:21;31.26;37.37
74940;HTU21D;63505;45.226;37.908;2023-06-24T08:28:47;31.28;37.14
74940;HTU21D;63505;45.226;37.908;2023-06-24T08:31:14;31.43;36.69
74940;HTU21D;63505;45.226;37.908;2023-06-24T08:33:44;31.52;36.14
74940;HTU21D;63505;45.226;37.908;2023-06-24T08:36:11;31.50;36.62
74940;HTU21D;63505;45.226;37.908;2023-06-24T08:38:37;31.55;36.75
74940;HTU21D;63505;45.226;37.908;2023-06-24T08:41:02;31.71;36.77
74940;HTU21D;63505;45.226;37.908;2023-06-24T08:43:28;31.82;36.57
74940;HTU21D;63505;45.226;37.908;2023-06-24T08:45:54;31.97;36.63
74940;HTU21D;63505;45.226;37.908;2023-06-24T08:48:21;32.03;36.44
74940;HTU21D;63505;45.226;37.908;2023-06-24T08:50:51;32.02;36.11
74940;HTU21D;63505;45.226;37.908;2023-06-24T08:53:18;32.10;36.53
74940;HTU21D;63505;45.226;37.908;2023-06-24T08:55:46;32.17;36.36
74940;HTU21D;63505;45.226;37.908;2023-06-24T08:58:13;32.15;35.96
74940;HTU21D;63505;45.226;37.908;2023-06-24T09:00:39;32.15;36.30
74940;HTU21D;63505;45.226;37.908;2023-06-24T09:03:07;32.20;36.10
74940;HTU21D;63505;45.226;37.908;2023-06-24T09:05:33;32.32;36.43
74940;HTU21D;63505;45.226;37.908;2023-06-24T09:07:59;32.45;36.36
74940;HTU21D;63505;45.226;37.908;2023-06-24T09:10:35;32.48;35.76
74940;HTU21D;63505;45.226;37.908;2023-06-24T09:13:02;32.46;36.21
74940;HTU21D;63505;45.226;37.908;2023-06-24T09:17:58;32.67;36.05
74940;HTU21D;63505;45.226;37.908;2023-06-24T09:20:29;32.70;35.74
74940;HTU21D;63505;45.226;37.908;2023-06-24T09:23:00;32.75;36.03
74940;HTU21D;63505;45.226;37.908;2023-06-24T09:25:27;32.85;35.21
74940;HTU21D;63505;45.226;37.908;2023-06-24T09:27:53;32.72;35.02
74940;HTU21D;63505;45.226;37.908;2023-06-24T09:30:23;32.61;34.89
74940;HTU21D;63505;45.226;37.908;2023-06-24T09:32:49;32.56;34.86
74940;HTU21D;63505;45.226;37.908;2023-06-24T09:35:22;32.49;34.95
74940;HTU21D;63505;45.226;37.908;2023-06-24T09:37:56;32.43;34.93
74940;HTU21D;63505;45.226;37.908;2023-06-24T09:40:24;32.39;34.89
74940;HTU21D;63505;45.226;37.908;2023-06-24T09:42:55;32.32;35.00
74940;HTU21D;63505;45.226;37.908;2023-06-24T09:45:24;32.30;35.41
74940;HTU21D;63505;45.226;37.908;2023-06-24T10:11:35;32.74;35.69
74940;HTU21D;63505;45.226;37.908;2023-06-24T10:14:02;32.75;35.70
74940;HTU21D;63505;45.226;37.908;2023-06-24T10:16:28;32.82;35.53
74940;HTU21D;63505;45.226;37.908;2023-06-24T10:19:00;32.81;35.37
74940;HTU21D;63505;45.226;37.908;2023-06-24T10:21:52;32.85;35.28
74940;HTU21D;63505;45.226;37.908;2023-06-24T10:24:32;32.81;35.31
74940;HTU21D;63505;45.226;37.908;2023-06-24T10:27:07;32.78;35.21
74940;HTU21D;63505;45.226;37.908;2023-06-24T10:29:37;32.75;35.15
74940;HTU21D;63505;45.226;37.908;2023-06-24T10:32:07;32.72;34.77
74940;HTU21D;63505;45.226;37.908;2023-06-24T10:37:11;32.66;34.91
74940;HTU21D;63505;45.226;37.908;2023-06-24T10:40:00;32.68;34.73
74940;HTU21D;63505;45.226;37.908;2023-06-24T10:45:14;32.66;34.55
74940;HTU21D;63505;45.226;37.908;2023-06-24T10:48:04;32.75;34.52
74940;HTU21D;63505;45.226;37.908;2023-06-24T10:51:47;32.83;34.73
74940;HTU21D;63505;45.226;37.908;2023-06-24T18:53:42;22.75;57.43
74940;HTU21D;63505;45.226;37.908;2023-06-24T18:56:08;22.68;57.71
74940;HTU21D;63505;45.226;37.908;2023-06-24T18:58:34;22.63;57.98
74940;HTU21D;63505;45.226;37.908;2023-06-24T19:01:00;22.58;58.22
74940;HTU21D;63505;45.226;37.908;2023-06-24T19:03:26;22.56;58.44
74940;HTU21D;63505;45.226;37.908;2023-06-24T19:05:52;22.52;58.63
74940;HTU21D;63505;45.226;37.908;2023-06-24T19:08:18;22.47;58.84
74940;HTU21D;63505;45.226;37.908;2023-06-24T19:10:44;22.42;59.08
74940;HTU21D;63505;45.226;37.908;2023-06-24T19:13:10;22.37;59.30
74940;HTU21D;63505;45.226;37.908;2023-06-24T19:15:36;22.31;59.49
74940;HTU21D;63505;45.226;37.908;2023-06-24T19:18:02;22.25;59.73
74940;HTU21D;63505;45.226;37.908;2023-06-24T19:20:28;22.17;59.96
74940;HTU21D;63505;45.226;37.908;2023-06-24T19:22:54;22.09;60.20
74940;HTU21D;63505;45.226;37.908;2023-06-24T19:25:20;22.01;60.48
74940;HTU21D;63505;45.226;37.908;2023-06-24T19:27:46;21.92;60.74
74940;HTU21D;63505;45.226;37.908;2023-06-24T19:30:12;21.85;60.95
74940;HTU21D;63505;45.226;37.908;2023-06-24T19:32:38;21.81;61.13
74940;HTU21D;63505;45.226;37.908;2023-06-24T19:35:04;21.77;61.29
74940;HTU21D;63505;45.226;37.908;2023-06-24T19:37:31;21.73;61.41
74940;HTU21D;63505;45.226;37.908;2023-06-24T19:39:57;21.70;61.53
74940;HTU21D;63505;45.226;37.908;2023-06-24T19:42:23;21.70;61.66
74940;HTU21D;63505;45.226;37.908;2023-06-24T19:44:49;21.68;61.75
74940;HTU21D;63505;45.226;37.908;2023-06-24T19:47:18;21.67;61.93
74940;HTU21D;63505;45.226;37.908;2023-06-24T19:49:51;21.61;62.21
74940;HTU21D;63505;45.226;37.908;2023-06-24T19:52:17;21.57;62.28
74940;HTU21D;63505;45.226;37.908;2023-06-24T19:54:42;21.51;62.49
74940;HTU21D;63505;45.226;37.908;2023-06-24T19:57:08;21.45;62.67
74940;HTU21D;63505;45.226;37.908;2023-06-24T19:59:34;21.42;62.82
74940;HTU21D;63505;45.226;37.908;2023-06-24T20:02:00;21.34;63.00
74940;HTU21D;63505;45.226;37.908;2023-06-24T20:04:26;21.29;63.18
74940;HTU21D;63505;45.226;37.908;2023-06-24T20:06:52;21.23;63.31
74940;HTU21D;63505;45.226;37.908;2023-06-24T20:09:18;21.21;63.43
74940;HTU21D;63505;45.226;37.908;2023-06-24T20:11:43;21.17;63.62
74940;HTU21D;63505;45.226;37.908;2023-06-24T20:14:09;21.13;63.79
74940;HTU21D;63505;45.226;37.908;2023-06-24T20:16:35;21.06;64.07
74940;HTU21D;63505;45.226;37.908;2023-06-24T20:19:01;21.01;64.29
74940;HTU21D;63505;45.226;37.908;2023-06-24T20:21:27;20.95;64.49
74940;HTU21D;63505;45.226;37.908;2023-06-24T20:23:53;20.87;64.76
74940;HTU21D;63505;45.226;37.908;2023-06-24T20:26:19;20.75;65.06
74940;HTU21D;63505;45.226;37.908;2023-06-24T20:28:45;20.69;65.27
74940;HTU21D;63505;45.226;37.908;2023-06-24T20:31:11;20.59;65.46
74940;HTU21D;63505;45.226;37.908;2023-06-24T20:33:38;20.58;65.53
74940;HTU21D;63505;45.226;37.908;2023-06-24T20:36:05;20.53;65.65
74940;HTU21D;63505;45.226;37.908;2023-06-24T20:38:31;20.51;65.82
74940;HTU21D;63505;45.226;37.908;2023-06-24T20:41:00;20.47;66.00
74940;HTU21D;63505;45.226;37.908;2023-06-24T20:43:26;20.43;66.08
74940;HTU21D;63505;45.226;37.908;2023-06-24T20:45:53;20.36;66.29
74940;HTU21D;63505;45.226;37.908;2023-06-24T20:48:19;20.32;66.46
74940;HTU21D;63505;45.226;37.908;2023-06-24T20:50:45;20.32;66.56
74940;HTU21D;63505;45.226;37.908;2023-06-24T20:53:11;20.32;66.62
74940;HTU21D;63505;45.226;37.908;2023-06-24T20:55:37;20.32;66.64
74940;HTU21D;63505;45.226;37.908;2023-06-24T20:58:06;20.35;66.74
74940;HTU21D;63505;45.226;37.908;2023-06-24T21:00:32;20.41;66.71
74940;HTU21D;63505;45.226;37.908;2023-06-24T21:02:58;20.43;66.75
74940;HTU21D;63505;45.226;37.908;2023-06-24T21:05:24;20.44;66.81
74940;HTU21D;63505;45.226;37.908;2023-06-24T21:07:50;20.45;66.90
74940;HTU21D;63505;45.226;37.908;2023-06-24T21:10:16;20.47;67.01
74940;HTU21D;63505;45.226;37.908;2023-06-24T21:12:42;20.51;67.05
74940;HTU21D;63505;45.226;37.908;2023-06-24T21:15:09;20.54;67.11
74940;HTU21D;63505;45.226;37.908;2023-06-24T21:17:35;20.58;67.16
74940;HTU21D;63505;45.226;37.908;2023-06-24T21:20:01;20.62;67.17
74940;HTU21D;63505;45.226;37.908;2023-06-24T21:22:27;20.63;67.21
74940;HTU21D;63505;45.226;37.908;2023-06-24T21:24:52;20.65;67.25
74940;HTU21D;63505;45.226;37.908;2023-06-24T21:27:18;20.68;67.31
74940;HTU21D;63505;45.226;37.908;2023-06-24T21:29:44;20.68;67.35
74940;HTU21D;63505;45.226;37.908;2023-06-24T21:32:10;20.65;67.42
74940;HTU21D;63505;45.226;37.908;2023-06-24T21:34:36;20.65;67.48
74940;HTU21D;63505;45.226;37.908;2023-06-24T21:37:01;20.65;67.58
74940;HTU21D;63505;45.226;37.908;2023-06-24T21:39:27;20.65;67.64
74940;HTU21D;63505;45.226;37.908;2023-06-24T21:41:53;20.64;67.68
74940;HTU21D;63505;45.226;37.908;2023-06-24T21:44:19;20.63;67.79
74940;HTU21D;63505;45.226;37.908;2023-06-24T21:46:45;20.62;67.87
74940;HTU21D;63505;45.226;37.908;2023-06-24T21:49:11;20.62;67.93
74940;HTU21D;63505;45.226;37.908;2023-06-24T21:51:40;20.62;68.04
74940;HTU21D;63505;45.226;37.908;2023-06-24T21:54:06;20.61;68.07
74940;HTU21D;63505;45.226;37.908;2023-06-24T21:56:32;20.60;68.17
74940;HTU21D;63505;45.226;37.908;2023-06-24T21:58:58;20.56;68.27
74940;HTU21D;63505;45.226;37.908;2023-06-24T22:01:23;20.54;68.36
74940;HTU21D;63505;45.226;37.908;2023-06-24T22:03:49;20.51;68.44
74940;HTU21D;63505;45.226;37.908;2023-06-24T22:06:15;20.47;68.59
74940;HTU21D;63505;45.226;37.908;2023-06-24T22:08:41;20.43;68.75
74940;HTU21D;63505;45.226;37.908;2023-06-24T22:11:07;20.39;68.87
74940;HTU21D;63505;45.226;37.908;2023-06-24T22:13:33;20.33;69.01
74940;HTU21D;63505;45.226;37.908;2023-06-24T22:16:01;20.28;69.13
74940;HTU21D;63505;45.226;37.908;2023-06-24T22:18:27;20.25;69.24
74940;HTU21D;63505;45.226;37.908;2023-06-24T22:20:53;20.17;69.39
74940;HTU21D;63505;45.226;37.908;2023-06-24T22:23:19;20.09;69.61
74940;HTU21D;63505;45.226;37.908;2023-06-24T22:25:45;20.02;69.78
74940;HTU21D;63505;45.226;37.908;2023-06-24T22:28:10;19.95;69.93
74940;HTU21D;63505;45.226;37.908;2023-06-24T22:30:36;19.94;70.01
74940;HTU21D;63505;45.226;37.908;2023-06-24T22:33:02;19.90;70.11
74940;HTU21D;63505;45.226;37.908;2023-06-24T22:35:28;19.82;70.32
74940;HTU21D;63505;45.226;37.908;2023-06-24T22:37:54;19.76;70.46
74940;HTU21D;63505;45.226;37.908;2023-06-24T22:40:20;19.73;70.55
74940;HTU21D;63505;45.226;37.908;2023-06-24T22:42:46;19.67;70.69
74940;HTU21D;63505;45.226;37.908;2023-06-24T22:45:11;19.61;70.84
74940;HTU21D;63505;45.226;37.908;2023-06-24T22:47:37;19.60;70.90
74940;HTU21D;63505;45.226;37.908;2023-06-24T22:50:03;19.58;71.00
74940;HTU21D;63505;45.226;37.908;2023-06-24T22:52:29;19.58;71.08
74940;HTU21D;63505;45.226;37.908;2023-06-24T22:54:55;19.62;71.16
74940;HTU21D;63505;45.226;37.908;2023-06-24T22:57:21;19.65;71.21
74940;HTU21D;63505;45.226;37.908;2023-06-24T22:59:47;19.69;71.27
74940;HTU21D;63505;45.226;37.908;2023-06-24T23:02:13;19.72;71.35
74940;HTU21D;63505;45.226;37.908;2023-06-24T23:04:39;19.75;71.45
74940;HTU21D;63505;45.226;37.908;2023-06-24T23:07:05;19.79;71.55
74940;HTU21D;63505;45.226;37.908;2023-06-24T23:09:32;19.83;71.62
74940;HTU21D;63505;45.226;37.908;2023-06-24T23:11:58;19.89;71.72
74940;HTU21D;63505;45.226;37.908;2023-06-24T23:14:24;19.97;71.77
74940;HTU21D;63505;45.226;37.908;2023-06-24T23:16:51;20.04;71.82
74940;HTU21D;63505;45.226;37.908;2023-06-24T23:19:17;20.12;71.90
74940;HTU21D;63505;45.226;37.908;2023-06-24T23:21:43;20.17;72.00
74940;HTU21D;63505;45.226;37.908;2023-06-24T23:24:10;20.21;72.09
74940;HTU21D;63505;45.226;37.908;2023-06-24T23:26:40;20.26;72.18
74940;HTU21D;63505;45.226;37.908;2023-06-24T23:29:17;20.31;72.25
74940;HTU21D;63505;45.226;37.908;2023-06-24T23:31:47;20.36;72.35
74940;HTU21D;63505;45.226;37.908;2023-06-24T23:34:13;20.42;72.41
74940;HTU21D;63505;45.226;37.908;2023-06-24T23:36:41;20.46;72.50
74940;HTU21D;63505;45.226;37.908;2023-06-24T23:39:08;20.51;72.57
74940;HTU21D;63505;45.226;37.908;2023-06-24T23:41:34;20.55;72.67